createdAt,value
2019-03-23T00:00:47.301Z,8.94
2019-03-23T00:03:15.583Z,8.95
2019-03-23T00:05:57.102Z,8.91
2019-03-23T00:08:25.447Z,8.93
2019-03-23T00:10:53.743Z,8.93
2019-03-23T00:13:22.043Z,8.93
2019-03-23T00:15:50.323Z,8.78
2019-03-23T00:18:18.613Z,8.71
2019-03-23T00:20:46.895Z,8.71
2019-03-23T00:23:15.195Z,8.71
2019-03-23T00:25:43.476Z,8.69
2019-03-23T00:28:11.770Z,8.61
2019-03-23T00:30:40.041Z,8.58
2019-03-23T00:33:08.330Z,8.60
2019-03-23T00:35:36.610Z,8.61
2019-03-23T00:38:04.930Z,8.56
2019-03-23T00:40:33.182Z,8.50
2019-03-23T00:43:01.472Z,8.52
2019-03-23T00:45:29.755Z,8.47
2019-03-23T00:47:58.057Z,8.48
2019-03-23T00:50:26.339Z,8.44
2019-03-23T00:52:54.624Z,8.40
2019-03-23T00:55:22.906Z,8.42
2019-03-23T00:57:51.186Z,8.42
2019-03-23T01:00:19.482Z,8.35
2019-03-23T01:02:47.776Z,8.30
2019-03-23T01:05:16.070Z,8.26
2019-03-23T01:07:44.404Z,8.27
2019-03-23T01:10:52.734Z,8.22
2019-03-23T01:13:21.002Z,8.18
2019-03-23T01:15:49.287Z,8.10
2019-03-23T01:18:17.590Z,8.02
2019-03-23T01:20:49.821Z,7.98
2019-03-23T01:23:15.861Z,7.90
2019-03-23T01:25:44.139Z,7.83
2019-03-23T01:28:12.433Z,7.80
2019-03-23T01:30:40.724Z,7.76
2019-03-23T01:33:09.001Z,7.76
2019-03-23T01:35:37.299Z,7.73
2019-03-23T01:38:05.592Z,7.72
2019-03-23T01:40:36.279Z,7.72
2019-03-23T01:43:03.857Z,7.72
2019-03-23T01:45:51.478Z,7.71
2019-03-23T01:48:19.768Z,7.66
2019-03-23T01:50:48.045Z,7.70
2019-03-23T01:53:16.329Z,7.67
2019-03-23T01:55:44.608Z,7.63
2019-03-23T01:58:12.945Z,7.57
2019-03-23T02:00:41.190Z,7.53
2019-03-23T02:03:22.343Z,7.41
2019-03-23T02:05:50.611Z,7.41
2019-03-23T02:08:18.919Z,7.38
2019-03-23T02:10:47.198Z,7.36
2019-03-23T02:13:15.494Z,7.32
2019-03-23T02:15:43.764Z,7.28
2019-03-23T02:18:12.055Z,7.18
2019-03-23T02:20:40.354Z,7.13
2019-03-23T02:23:08.631Z,7.24
2019-03-23T02:25:36.933Z,7.38
2019-03-23T02:28:05.214Z,7.42
2019-03-23T02:30:33.504Z,7.48
2019-03-23T02:33:01.796Z,7.73
2019-03-23T02:35:30.086Z,7.84
2019-03-23T02:37:58.388Z,8.02
2019-03-23T02:40:26.679Z,8.08
2019-03-23T02:43:05.675Z,8.13
2019-03-23T02:45:33.972Z,8.13
2019-03-23T02:48:02.250Z,8.22
2019-03-23T02:50:30.525Z,8.19
2019-03-23T02:52:58.801Z,8.08
2019-03-23T02:55:27.092Z,8.07
2019-03-23T02:57:55.388Z,8.00
2019-03-23T03:00:23.662Z,7.96
2019-03-23T03:02:51.956Z,8.02
2019-03-23T03:05:20.234Z,8.05
2019-03-23T03:07:48.509Z,8.01
2019-03-23T03:10:48.646Z,8.06
2019-03-23T03:13:16.917Z,7.88
2019-03-23T03:15:45.210Z,7.68
2019-03-23T03:18:13.499Z,7.60
2019-03-23T03:23:42.936Z,7.48
2019-03-23T03:26:11.227Z,7.43
2019-03-23T03:28:39.505Z,7.35
2019-03-23T03:31:07.869Z,7.24
2019-03-23T03:33:36.157Z,7.35
2019-03-23T03:36:04.443Z,7.25
2019-03-23T03:38:32.737Z,7.02
2019-03-23T03:41:01.171Z,7.17
2019-03-23T03:43:48.796Z,6.95
2019-03-23T03:46:17.077Z,6.95
2019-03-23T03:48:45.345Z,7.00
2019-03-23T03:51:13.632Z,7.04
2019-03-23T03:53:41.904Z,7.00
2019-03-23T03:56:10.170Z,7.02
2019-03-23T03:58:38.446Z,7.08
2019-03-23T04:01:06.727Z,7.18
2019-03-23T04:03:35.020Z,7.02
2019-03-23T04:06:03.304Z,6.98
2019-03-23T04:08:31.572Z,6.89
2019-03-23T04:10:59.849Z,6.79
2019-03-23T04:13:28.140Z,6.80
2019-03-23T04:15:56.428Z,6.71
2019-03-23T04:18:24.693Z,6.47
2019-03-23T04:20:52.990Z,6.37
2019-03-23T04:23:21.265Z,6.33
2019-03-23T04:25:49.562Z,6.41
2019-03-23T04:28:17.896Z,6.45
2019-03-23T04:30:46.189Z,6.46
2019-03-23T04:33:14.463Z,6.45
2019-03-23T04:35:42.740Z,6.55
2019-03-23T04:38:22.141Z,6.48
2019-03-23T04:40:41.015Z,6.35
2019-03-23T04:43:09.306Z,6.34
2019-03-23T04:45:37.579Z,6.43
2019-03-23T04:48:05.870Z,6.53
2019-03-23T04:50:34.165Z,6.52
2019-03-23T04:53:02.445Z,6.49
2019-03-23T04:55:30.722Z,6.52
2019-03-23T04:57:59.005Z,6.55
2019-03-23T05:00:27.285Z,6.58
2019-03-23T05:02:55.566Z,6.66
2019-03-23T05:05:23.832Z,6.73
2019-03-23T05:07:52.120Z,6.81
2019-03-23T05:10:20.398Z,6.85
2019-03-23T05:12:48.675Z,6.69
2019-03-23T05:15:17.029Z,6.68
2019-03-23T05:17:45.317Z,6.46
2019-03-23T05:23:33.443Z,6.51
2019-03-23T05:26:01.722Z,6.47
2019-03-23T05:28:29.980Z,6.38
2019-03-23T05:30:58.275Z,6.31
2019-03-23T05:33:26.542Z,6.27
2019-03-23T05:35:54.823Z,6.22
2019-03-23T05:38:23.095Z,6.29
2019-03-23T05:40:51.912Z,6.16
2019-03-23T05:43:20.186Z,6.12
2019-03-23T05:45:48.459Z,6.32
2019-03-23T05:48:16.743Z,6.23
2019-03-23T05:50:45.026Z,6.34
2019-03-23T05:53:13.300Z,6.35
2019-03-23T05:55:41.575Z,6.42
2019-03-23T05:58:09.857Z,6.50
2019-03-23T06:00:38.133Z,6.47
2019-03-23T06:03:06.432Z,6.50
2019-03-23T06:05:34.694Z,6.50
2019-03-23T06:08:02.986Z,6.43
2019-03-23T06:10:31.291Z,6.50
2019-03-23T06:12:59.566Z,6.36
2019-03-23T06:15:27.858Z,6.38
2019-03-23T06:17:56.154Z,6.19
2019-03-23T06:20:24.446Z,6.25
2019-03-23T06:22:52.737Z,6.27
2019-03-23T06:25:21.016Z,6.36
2019-03-23T06:27:49.303Z,6.45
2019-03-23T06:30:17.586Z,6.62
2019-03-23T06:32:45.863Z,6.57
2019-03-23T06:35:14.134Z,6.61
2019-03-23T06:37:42.424Z,6.68
2019-03-23T06:40:41.599Z,6.74
2019-03-23T06:43:09.880Z,6.67
2019-03-23T06:45:38.149Z,6.58
2019-03-23T06:48:06.432Z,6.62
2019-03-23T06:50:34.706Z,6.46
2019-03-23T06:53:02.987Z,6.46
2019-03-23T06:55:31.258Z,6.51
2019-03-23T06:57:59.526Z,6.57
2019-03-23T07:00:27.803Z,6.62
2019-03-23T07:02:56.089Z,6.53
2019-03-23T07:05:24.362Z,6.64
2019-03-23T07:07:52.700Z,6.70
2019-03-23T07:10:21.249Z,6.58
2019-03-23T07:12:49.533Z,6.73
2019-03-23T07:15:20.209Z,6.72
2019-03-23T07:17:48.205Z,6.62
2019-03-23T07:20:16.573Z,6.67
2019-03-23T07:22:44.860Z,6.63
2019-03-23T07:25:13.227Z,6.73
2019-03-23T07:27:41.516Z,6.69
2019-03-23T07:30:49.809Z,6.64
2019-03-23T07:33:18.104Z,6.80
2019-03-23T07:35:46.391Z,6.81
2019-03-23T07:38:25.875Z,6.81
2019-03-23T07:40:54.149Z,6.81
2019-03-23T07:43:22.437Z,6.90
2019-03-23T07:45:50.713Z,6.87
2019-03-23T07:48:19.001Z,6.97
2019-03-23T07:50:47.296Z,6.91
2019-03-23T07:53:15.629Z,7.09
2019-03-23T07:55:43.916Z,7.09
2019-03-23T07:58:12.179Z,7.09
2019-03-23T08:00:41.069Z,7.10
2019-03-23T08:03:10.488Z,7.19
2019-03-23T08:05:38.794Z,7.40
2019-03-23T08:08:07.068Z,7.48
2019-03-23T08:10:35.420Z,7.47
2019-03-23T08:13:03.714Z,7.78
2019-03-23T08:15:31.991Z,7.65
2019-03-23T08:18:00.270Z,7.58
2019-03-23T08:20:28.546Z,7.53
2019-03-23T08:22:56.842Z,7.47
2019-03-23T08:25:25.099Z,7.51
2019-03-23T08:27:53.379Z,7.66
2019-03-23T08:30:21.646Z,7.63
2019-03-23T08:32:49.918Z,7.70
2019-03-23T08:35:18.205Z,7.85
2019-03-23T08:37:46.488Z,7.88
2019-03-23T08:40:14.814Z,7.94
2019-03-23T08:42:43.087Z,8.13
2019-03-23T08:45:14.586Z,8.16
2019-03-23T08:47:42.867Z,8.06
2019-03-23T08:50:43.191Z,8.17
2019-03-23T08:53:11.463Z,8.25
2019-03-23T08:55:39.743Z,8.35
2019-03-23T08:58:08.022Z,8.27
2019-03-23T09:00:36.290Z,8.16
2019-03-23T09:03:04.603Z,8.16
2019-03-23T09:05:32.872Z,8.17
2019-03-23T09:08:01.160Z,8.09
2019-03-23T09:10:29.438Z,8.10
2019-03-23T09:12:57.702Z,8.08
2019-03-23T09:15:25.998Z,8.07
2019-03-23T09:17:54.267Z,8.16
2019-03-23T09:20:22.562Z,8.26
2019-03-23T09:22:50.831Z,8.43
2019-03-23T09:25:19.114Z,8.51
2019-03-23T09:27:47.390Z,8.51
2019-03-23T09:30:15.735Z,8.41
2019-03-23T09:32:44.010Z,8.49
2019-03-23T09:35:12.276Z,8.60
2019-03-23T09:37:40.566Z,8.57
2019-03-23T09:40:40.629Z,8.61
2019-03-23T09:43:08.897Z,8.58
2019-03-23T09:45:37.181Z,8.59
2019-03-23T09:48:05.448Z,8.77
2019-03-23T09:50:33.722Z,8.84
2019-03-23T09:53:02.015Z,8.89
2019-03-23T09:55:30.269Z,8.94
2019-03-23T09:57:58.549Z,8.87
2019-03-23T10:00:26.819Z,8.90
2019-03-23T10:02:55.106Z,9.09
2019-03-23T10:05:23.367Z,8.93
2019-03-23T10:07:51.641Z,9.12
2019-03-23T10:10:21.956Z,9.10
2019-03-23T10:12:49.922Z,9.05
2019-03-23T10:15:18.189Z,9.08
2019-03-23T10:17:46.486Z,9.02
2019-03-23T10:20:14.771Z,8.92
2019-03-23T10:22:43.056Z,8.84
2019-03-23T10:25:11.351Z,8.82
2019-03-23T10:27:39.614Z,8.81
2019-03-23T10:33:27.747Z,9.13
2019-03-23T10:35:56.779Z,8.91
2019-03-23T10:38:25.077Z,8.91
2019-03-23T10:40:53.352Z,8.98
2019-03-23T10:43:21.640Z,8.94
2019-03-23T10:45:49.957Z,8.91
2019-03-23T10:48:18.245Z,9.15
2019-03-23T10:50:46.503Z,9.25
2019-03-23T10:53:22.852Z,9.21
2019-03-23T10:55:44.777Z,9.13
2019-03-23T10:58:13.060Z,8.98
2019-03-23T11:00:41.325Z,8.88
2019-03-23T11:03:09.598Z,8.92
2019-03-23T11:05:37.870Z,9.01
2019-03-23T11:08:06.136Z,9.19
2019-03-23T11:10:41.596Z,9.27
2019-03-23T11:13:04.396Z,9.43
2019-03-23T11:15:32.695Z,9.49
2019-03-23T11:18:00.967Z,9.55
2019-03-23T11:20:29.225Z,9.56
2019-03-23T11:22:57.500Z,9.49
2019-03-23T11:25:25.778Z,9.37
2019-03-23T11:27:54.045Z,9.46
2019-03-23T11:30:22.319Z,9.43
2019-03-23T11:33:03.670Z,9.32
2019-03-23T11:35:31.942Z,9.37
2019-03-23T11:38:02.327Z,9.43
2019-03-23T11:40:30.214Z,9.49
2019-03-23T11:42:58.509Z,9.60
2019-03-23T11:45:26.774Z,9.64
2019-03-23T11:47:55.028Z,9.40
2019-03-23T11:50:23.295Z,9.23
2019-03-23T11:52:51.557Z,9.15
2019-03-23T11:55:19.846Z,9.22
2019-03-23T11:57:48.116Z,9.13
2019-03-23T12:00:16.545Z,9.13
2019-03-23T12:02:44.810Z,9.18
2019-03-23T12:05:13.175Z,9.10
2019-03-23T12:07:41.445Z,9.10
2019-03-23T12:10:29.096Z,9.08
2019-03-23T12:12:57.371Z,9.15
2019-03-23T12:15:25.661Z,9.08
2019-03-23T12:17:53.912Z,9.17
2019-03-23T12:20:22.177Z,9.15
2019-03-23T12:22:50.463Z,9.20
2019-03-23T12:25:18.746Z,9.11
2019-03-23T12:27:47.026Z,9.14
2019-03-23T12:30:34.645Z,9.05
2019-03-23T12:33:02.921Z,9.15
2019-03-23T12:35:31.197Z,9.27
2019-03-23T12:37:59.472Z,9.07
2019-03-23T12:40:27.741Z,9.12
2019-03-23T12:42:56.028Z,9.25
2019-03-23T12:45:24.312Z,9.34
2019-03-23T12:47:52.574Z,9.50
2019-03-23T12:50:20.856Z,9.68
2019-03-23T12:52:49.152Z,9.63
2019-03-23T12:55:17.403Z,9.76
2019-03-23T12:57:45.683Z,9.81
2019-03-23T13:03:33.825Z,10.01
2019-03-23T13:06:02.113Z,9.90
2019-03-23T13:08:30.390Z,9.87
2019-03-23T13:10:58.658Z,9.87
2019-03-23T13:13:26.936Z,10.01
2019-03-23T13:15:55.224Z,10.12
2019-03-23T13:18:27.340Z,10.24
2019-03-23T13:20:53.601Z,10.22
2019-03-23T13:23:21.861Z,10.36
2019-03-23T13:25:50.137Z,10.52
2019-03-23T13:28:18.410Z,10.41
2019-03-23T13:30:46.688Z,10.29
2019-03-23T13:33:14.957Z,10.44
2019-03-23T13:35:43.244Z,10.37
2019-03-23T13:38:11.506Z,10.26
2019-03-23T13:40:39.780Z,10.03
2019-03-23T13:43:08.062Z,10.00
2019-03-23T13:45:42.585Z,10.17
2019-03-23T13:48:06.325Z,10.28
2019-03-23T13:50:34.610Z,10.49
2019-03-23T13:53:02.861Z,10.53
2019-03-23T13:58:50.990Z,10.62
2019-03-23T14:01:19.276Z,10.88
2019-03-23T14:03:47.543Z,10.92
2019-03-23T14:06:15.821Z,11.04
2019-03-23T14:08:44.094Z,11.07
2019-03-23T14:11:12.405Z,11.33
2019-03-23T14:13:41.225Z,11.32
2019-03-23T14:16:09.490Z,11.31
2019-03-23T14:18:37.754Z,11.27
2019-03-23T14:21:06.017Z,11.28
2019-03-23T14:23:34.284Z,11.19
2019-03-23T14:26:02.551Z,11.27
2019-03-23T14:28:30.810Z,11.37
2019-03-23T14:30:59.077Z,11.36
2019-03-23T14:33:27.351Z,11.67
2019-03-23T14:35:55.632Z,11.88
2019-03-23T14:38:23.919Z,11.79
2019-03-23T14:40:52.272Z,11.88
2019-03-23T14:43:20.542Z,12.05
2019-03-23T14:45:48.824Z,12.01
2019-03-23T14:48:17.079Z,11.98
2019-03-23T14:50:45.364Z,12.03
2019-03-23T14:56:00.967Z,11.92
2019-03-23T14:58:29.234Z,11.74
2019-03-23T15:00:57.498Z,11.94
2019-03-23T15:03:25.766Z,11.99
2019-03-23T15:05:54.028Z,12.07
2019-03-23T15:08:22.307Z,11.84
2019-03-23T15:10:50.579Z,12.01
2019-03-23T15:13:18.838Z,12.03
2019-03-23T15:15:47.106Z,12.17
2019-03-23T15:18:15.377Z,11.68
2019-03-23T15:20:43.657Z,11.94
2019-03-23T15:23:11.936Z,11.90
2019-03-23T15:28:30.458Z,11.85
2019-03-23T15:30:58.722Z,11.47
2019-03-23T15:33:27.986Z,11.48
2019-03-23T15:35:56.273Z,11.42
2019-03-23T15:38:24.560Z,11.48
2019-03-23T15:40:52.815Z,11.43
2019-03-23T15:43:21.101Z,11.37
2019-03-23T15:45:49.385Z,11.20
2019-03-23T15:48:17.653Z,11.07
2019-03-23T15:50:45.936Z,10.95
2019-03-23T15:53:14.211Z,10.91
2019-03-23T15:55:42.474Z,10.89
2019-03-23T15:58:10.734Z,10.88
2019-03-23T16:00:39.018Z,10.76
2019-03-23T16:03:07.282Z,10.96
2019-03-23T16:05:35.546Z,11.02
2019-03-23T16:08:03.820Z,11.17
2019-03-23T16:10:32.080Z,11.21
2019-03-23T16:13:00.365Z,11.04
2019-03-23T16:15:28.629Z,11.05
2019-03-23T16:17:56.887Z,10.99
2019-03-23T16:20:25.156Z,10.61
2019-03-23T16:22:53.434Z,10.46
2019-03-23T16:25:21.720Z,10.42
2019-03-23T16:27:50.007Z,10.30
2019-03-23T16:33:29.241Z,10.31
2019-03-23T16:35:57.505Z,10.37
2019-03-23T16:38:25.769Z,10.21
2019-03-23T16:40:54.045Z,10.17
2019-03-23T16:43:22.302Z,10.14
2019-03-23T16:45:50.565Z,9.98
2019-03-23T16:48:18.891Z,9.88
2019-03-23T16:50:47.162Z,10.02
2019-03-23T16:53:15.460Z,9.81
2019-03-23T16:55:43.695Z,9.76
2019-03-23T16:58:15.980Z,9.61
2019-03-23T17:00:41.949Z,9.61
2019-03-23T17:06:27.830Z,9.68
2019-03-23T17:08:56.083Z,9.48
2019-03-23T17:11:24.360Z,9.35
2019-03-23T17:13:52.623Z,9.38
2019-03-23T17:16:20.909Z,9.35
2019-03-23T17:18:49.174Z,9.29
2019-03-23T17:21:17.450Z,9.11
2019-03-23T17:23:45.714Z,9.10
2019-03-23T17:26:14.001Z,9.08
2019-03-23T17:28:42.290Z,8.94
2019-03-23T17:31:10.542Z,8.85
2019-03-23T17:33:38.927Z,8.85
2019-03-23T17:42:05.904Z,8.79
2019-03-23T17:44:34.162Z,8.69
2019-03-23T17:47:02.426Z,8.68
2019-03-23T17:49:30.682Z,8.58
2019-03-23T17:51:58.962Z,8.49
2019-03-23T17:54:27.227Z,8.51
2019-03-23T17:56:55.501Z,8.44
2019-03-23T17:59:23.760Z,8.42
2019-03-23T18:01:52.044Z,8.43
2019-03-23T18:04:20.296Z,8.31
2019-03-23T18:10:01.887Z,8.29
2019-03-23T18:12:30.166Z,8.19
2019-03-23T18:14:58.446Z,8.14
2019-03-23T18:17:26.716Z,8.02
2019-03-23T18:19:54.992Z,7.96
2019-03-23T18:22:23.246Z,8.02
2019-03-23T18:24:51.539Z,8.09
2019-03-23T18:27:19.794Z,8.05
2019-03-23T18:33:01.064Z,7.98
2019-03-23T18:35:29.343Z,7.92
2019-03-23T18:37:57.602Z,7.85
2019-03-23T18:43:09.695Z,7.69
2019-03-23T18:45:37.948Z,7.48
2019-03-23T18:51:17.346Z,7.54
2019-03-23T18:53:45.608Z,7.47
2019-03-23T18:56:29.085Z,7.40
2019-03-23T18:58:57.360Z,7.37
2019-03-23T19:04:09.130Z,7.35
2019-03-23T19:07:14.718Z,7.16
2019-03-23T19:09:42.971Z,7.13
2019-03-23T19:15:38.593Z,7.24
2019-03-23T19:21:20.388Z,7.17
2019-03-23T19:23:48.669Z,7.09
2019-03-23T19:26:41.563Z,7.18
2019-03-23T19:29:09.839Z,7.07
2019-03-23T19:31:38.125Z,7.05
2019-03-23T19:34:06.398Z,7.07
2019-03-23T19:36:34.732Z,6.87
2019-03-23T19:41:51.962Z,6.78
2019-03-23T19:44:20.231Z,6.77
2019-03-23T19:46:48.510Z,6.78
2019-03-23T19:52:44.186Z,6.82
2019-03-23T19:58:17.681Z,6.62
2019-03-23T20:00:45.966Z,6.69
2019-03-23T20:03:14.229Z,6.69
2019-03-23T20:06:18.621Z,6.64
2019-03-23T20:08:46.890Z,6.65
2019-03-23T20:11:15.212Z,6.57
2019-03-23T20:14:04.251Z,6.47
2019-03-23T20:16:32.556Z,6.39
2019-03-23T20:19:00.868Z,6.39
2019-03-23T20:24:16.459Z,6.32
2019-03-23T20:26:44.735Z,6.22
2019-03-23T20:29:13.009Z,6.20
2019-03-23T20:31:41.266Z,6.24
2019-03-23T20:34:09.551Z,6.19
2019-03-23T20:36:38.414Z,6.09
2019-03-23T20:42:27.728Z,5.92
2019-03-23T20:44:55.995Z,5.83
2019-03-23T20:47:24.324Z,5.97
2019-03-23T20:59:21.999Z,5.79
2019-03-23T21:01:50.339Z,5.97
2019-03-23T21:04:20.177Z,5.96
2019-03-23T21:06:48.463Z,5.90
2019-03-23T21:09:16.781Z,5.83
2019-03-23T21:11:45.063Z,5.85
2019-03-23T21:14:20.209Z,5.75
2019-03-23T21:16:43.312Z,5.67
2019-03-23T21:19:11.571Z,5.52
2019-03-23T21:21:39.850Z,5.54
2019-03-23T21:24:08.106Z,5.63
2019-03-23T21:26:36.925Z,5.67
2019-03-23T21:29:05.201Z,5.69
2019-03-23T21:31:33.471Z,5.70
2019-03-23T21:34:01.748Z,5.66
2019-03-23T21:36:30.022Z,5.47
2019-03-23T21:38:58.295Z,5.38
2019-03-23T21:41:26.572Z,5.33
2019-03-23T21:43:54.838Z,5.41
2019-03-23T21:46:23.112Z,5.46
2019-03-23T21:48:51.410Z,5.46
2019-03-23T21:51:19.683Z,5.46
2019-03-23T21:53:47.945Z,5.52
2019-03-23T21:56:16.229Z,5.58
2019-03-23T21:58:44.532Z,5.54
2019-03-23T22:01:12.787Z,5.40
2019-03-23T22:03:42.015Z,5.42
2019-03-23T22:06:10.277Z,5.44
2019-03-23T22:08:38.551Z,5.49
2019-03-23T22:11:06.828Z,5.46
2019-03-23T22:13:35.091Z,5.61
2019-03-23T22:16:05.185Z,5.69
2019-03-23T22:18:33.349Z,5.71
2019-03-23T22:21:01.628Z,5.74
2019-03-23T22:23:29.898Z,5.79
2019-03-23T22:25:58.181Z,5.74
2019-03-23T22:28:26.457Z,5.78
2019-03-23T22:30:54.730Z,5.53
2019-03-23T22:33:23.024Z,5.61
2019-03-23T22:35:51.290Z,5.44
2019-03-23T22:38:19.567Z,5.28
2019-03-23T22:40:47.820Z,5.13
2019-03-23T22:43:16.098Z,5.10
2019-03-23T22:45:44.365Z,5.18
2019-03-23T22:48:12.636Z,5.32
2019-03-23T22:50:40.917Z,5.44
2019-03-23T22:53:09.176Z,5.49
2019-03-23T22:55:37.447Z,5.46
2019-03-23T22:58:05.709Z,5.17
2019-03-23T23:00:53.083Z,5.26
2019-03-23T23:03:21.812Z,5.09
2019-03-23T23:05:50.104Z,5.12
2019-03-23T23:08:18.369Z,5.09
2019-03-23T23:10:46.714Z,5.07
2019-03-23T23:13:14.976Z,5.22
2019-03-23T23:16:02.613Z,5.32
2019-03-23T23:18:30.873Z,5.24
2019-03-23T23:20:59.143Z,5.27
2019-03-23T23:23:27.423Z,5.25
2019-03-23T23:25:55.695Z,5.11
2019-03-23T23:28:23.968Z,5.05
2019-03-23T23:30:52.234Z,5.07
2019-03-23T23:33:20.508Z,4.94
2019-03-23T23:35:48.780Z,5.07
2019-03-23T23:38:17.041Z,5.13
2019-03-23T23:40:45.304Z,5.02
2019-03-23T23:43:13.568Z,4.91
2019-03-23T23:45:41.833Z,4.83
2019-03-23T23:48:10.107Z,4.83
2019-03-23T23:50:38.378Z,4.83
2019-03-23T23:53:06.654Z,4.86
2019-03-23T23:55:34.968Z,4.84
2019-03-23T23:58:03.189Z,4.82
